Time;durP1;ratioP1;P1;durP2;ratioP2;P2;SDS_P1;SDS_P2;PMS_P1;PMS_P2;Temp;Humidity;BMP_temperature;BMP_pressure;BME280_temperature;BME280_humidity;BME280_pressure;Samples;Min_cycle;Max_cycle;Signal;HPM_P1;HPM_P2
2021/08/29 00:01:21;;;;;;;2.70;1.73;;;;;;;;;;4984465;28;20214;-74
2021/08/29 00:04:25;;;;;;;2.07;1.90;;;;;;;;;;4993961;28;20657;-74
2021/08/29 00:07:29;;;;;;;2.00;1.50;;;;;;;;;;4994837;28;20190;-74
2021/08/29 00:10:33;;;;;;;1.90;1.80;;;;;;;;;;4993877;28;20562;-74
2021/08/29 00:13:37;;;;;;;2.57;1.80;;;;;;;;;;4986818;28;20518;-74
2021/08/29 00:16:41;;;;;;;2.40;1.60;;;;;;;;;;4982572;28;20561;-74
2021/08/29 00:19:45;;;;;;;3.13;1.97;;;;;;;;;;4990756;28;20219;-74
2021/08/29 00:22:49;;;;;;;2.10;1.90;;;;;;;;;;4990404;28;20190;-74
2021/08/29 00:25:53;;;;;;;4.13;1.70;;;;;;;;;;4994131;28;20190;-74
2021/08/29 00:28:57;;;;;;;2.13;1.60;;;;;;;;;;4978556;28;20199;-74
2021/08/29 00:32:01;;;;;;;2.93;2.20;;;;;;;;;;4981766;28;20213;-74
2021/08/29 00:35:06;;;;;;;2.27;1.83;;;;;;;;;;4990896;28;20199;-74
2021/08/29 00:38:10;;;;;;;3.07;2.30;;;;;;;;;;4973873;28;20210;-74
2021/08/29 00:41:14;;;;;;;3.33;2.07;;;;;;;;;;4962353;28;20558;-74
2021/08/29 00:44:19;;;;;;;2.53;2.10;;;;;;;;;;4974724;28;20198;-74
2021/08/29 00:47:23;;;;;;;5.90;2.20;;;;;;;;;;4989262;28;20194;-74
2021/08/29 00:50:28;;;;;;;2.80;2.50;;;;;;;;;;4993519;28;20174;-74
2021/08/29 00:53:33;;;;;;;2.60;2.27;;;;;;;;;;4991558;28;20190;-74
2021/08/29 00:56:39;;;;;;;4.50;2.17;;;;;;;;;;4993086;28;20198;-74
2021/08/29 00:59:46;;;;;;;3.40;2.80;;;;;;;;;;4992490;28;20214;-74
2021/08/29 01:02:58;;;;;;;3.00;2.70;;;;;;;;;;4982253;28;20233;-74
2021/08/29 01:06:21;;;;;;;4.13;2.50;;;;;;;;;;4985529;28;20206;-74
2021/08/29 01:09:50;;;;;;;5.37;2.53;;;;;;;;;;4974782;28;20198;-74
2021/08/29 01:12:57;;;;;;;2.83;2.53;;;;;;;;;;4973532;28;20671;-74
2021/08/29 01:16:05;;;;;;;4.27;3.17;;;;;;;;;;4987617;28;20194;-74
2021/08/29 01:19:13;;;;;;;4.17;2.87;;;;;;;;;;4966722;28;20186;-74
2021/08/29 01:22:20;;;;;;;4.77;2.83;;;;;;;;;;4989219;28;20214;-74
2021/08/29 01:25:27;;;;;;;3.23;2.93;;;;;;;;;;4984252;28;20539;-74
2021/08/29 01:28:42;;;;;;;3.67;3.37;;;;;;;;;;4992321;28;20657;-74
2021/08/29 01:31:47;;;;;;;3.57;3.13;;;;;;;;;;4988909;28;20214;-74
2021/08/29 01:34:51;;;;;;;7.90;3.20;;;;;;;;;;4991439;28;20190;-74
2021/08/29 01:38:17;;;;;;;4.60;3.57;;;;;;;;;;4966050;28;20195;-74
2021/08/29 01:41:23;;;;;;;3.50;3.20;;;;;;;;;;4973158;28;20226;-74
2021/08/29 01:44:28;;;;;;;5.93;3.50;;;;;;;;;;4979310;28;20190;-73
2021/08/29 01:47:32;;;;;;;4.03;3.37;;;;;;;;;;4992711;28;20194;-74
2021/08/29 01:50:36;;;;;;;4.20;3.77;;;;;;;;;;4981554;28;20183;-74
2021/08/29 01:53:48;;;;;;;4.33;3.57;;;;;;;;;;4994465;28;20206;-74
2021/08/29 01:57:07;;;;;;;3.47;3.17;;;;;;;;;;4984798;28;20206;-74
2021/08/29 02:00:14;;;;;;;5.67;3.50;;;;;;;;;;4970211;28;20218;-74
2021/08/29 02:03:19;;;;;;;4.53;4.13;;;;;;;;;;4976963;28;20642;-73
2021/08/29 02:06:46;;;;;;;5.70;3.70;;;;;;;;;;4991470;28;20194;-73
2021/08/29 02:09:52;;;;;;;4.63;4.03;;;;;;;;;;4976555;28;20198;-74
2021/08/29 02:13:04;;;;;;;4.50;3.83;;;;;;;;;;4994136;28;20653;-74
2021/08/29 02:16:18;;;;;;;3.63;3.33;;;;;;;;;;4983272;28;20194;-74
2021/08/29 02:19:26;;;;;;;4.10;3.70;;;;;;;;;;4995500;28;20194;-73
2021/08/29 02:22:35;;;;;;;5.53;3.90;;;;;;;;;;4994183;28;20213;-74
2021/08/29 02:25:40;;;;;;;6.83;4.17;;;;;;;;;;4991079;28;20530;-74
2021/08/29 02:28:44;;;;;;;7.73;4.20;;;;;;;;;;4992463;28;20526;-74
2021/08/29 02:31:51;;;;;;;5.20;4.13;;;;;;;;;;4973037;28;20222;-74
2021/08/29 02:34:56;;;;;;;5.97;3.67;;;;;;;;;;4995903;28;20205;-73
2021/08/29 02:38:09;;;;;;;4.10;3.70;;;;;;;;;;4983817;28;20546;-74
2021/08/29 02:41:15;;;;;;;5.10;4.50;;;;;;;;;;4983537;28;20221;-74
2021/08/29 02:44:21;;;;;;;6.43;4.73;;;;;;;;;;4982752;28;20198;-73
2021/08/29 02:47:25;;;;;;;5.23;4.73;;;;;;;;;;4983918;28;20198;-74
2021/08/29 02:50:31;;;;;;;5.80;4.20;;;;;;;;;;4995260;28;20554;-74
2021/08/29 02:53:36;;;;;;;5.57;4.97;;;;;;;;;;4995608;28;20182;-74
2021/08/29 02:56:43;;;;;;;5.40;4.90;;;;;;;;;;4993347;28;20222;-74
2021/08/29 02:59:47;;;;;;;8.23;5.33;;;;;;;;;;4984257;28;20178;-73
2021/08/29 03:02:52;;;;;;;5.63;5.03;;;;;;;;;;4983909;28;20182;-74
2021/08/29 03:05:56;;;;;;;6.40;5.47;;;;;;;;;;4977122;28;20246;-74
2021/08/29 03:09:01;;;;;;;6.17;5.27;;;;;;;;;;4977242;28;20199;-74
2021/08/29 03:12:10;;;;;;;6.40;5.70;;;;;;;;;;4988213;28;20222;-74
2021/08/29 03:15:44;;;;;;;7.43;5.53;;;;;;;;;;4981420;28;20183;-73
2021/08/29 03:19:16;;;;;;;6.97;5.63;;;;;;;;;;4987613;28;20187;-74
2021/08/29 03:22:25;;;;;;;6.40;5.37;;;;;;;;;;4980028;28;20550;-74
2021/08/29 03:25:32;;;;;;;7.53;5.90;;;;;;;;;;4980599;28;20203;-74
2021/08/29 03:28:37;;;;;;;8.10;5.50;;;;;;;;;;4975382;28;20183;-74
2021/08/29 03:31:41;;;;;;;6.57;5.77;;;;;;;;;;4994255;28;20217;-73
2021/08/29 03:34:47;;;;;;;6.47;5.77;;;;;;;;;;4993749;28;20190;-74
2021/08/29 03:37:51;;;;;;;6.63;6.03;;;;;;;;;;4996656;28;20210;-74
2021/08/29 03:40:56;;;;;;;8.27;6.47;;;;;;;;;;4991548;28;20696;-73
2021/08/29 03:44:01;;;;;;;8.57;6.00;;;;;;;;;;4982750;28;20644;-74
2021/08/29 03:47:06;;;;;;;7.07;5.97;;;;;;;;;;4981235;28;20187;-74
2021/08/29 03:50:18;;;;;;;6.80;6.07;;;;;;;;;;4987391;28;20186;-73
2021/08/29 03:53:24;;;;;;;10.13;5.70;;;;;;;;;;4994130;28;20202;-73
2021/08/29 03:56:30;;;;;;;6.40;5.53;;;;;;;;;;4978702;23;20230;-78
2021/08/29 03:59:34;;;;;;;10.03;7.27;;;;;;;;;;4963888;28;20522;-78
2021/08/29 04:02:43;;;;;;;8.13;6.77;;;;;;;;;;4974602;28;20226;-78
2021/08/29 04:05:59;;;;;;;7.80;6.87;;;;;;;;;;4950889;28;20199;-78
2021/08/29 04:09:07;;;;;;;8.53;7.10;;;;;;;;;;4965032;28;20194;-78
2021/08/29 04:12:14;;;;;;;9.50;7.97;;;;;;;;;;4968767;28;20214;-78
2021/08/29 04:15:48;;;;;;;10.83;7.10;;;;;;;;;;4972073;28;20187;-78
2021/08/29 04:18:54;;;;;;;10.70;8.07;;;;;;;;;;4969077;28;20202;-78
2021/08/29 04:21:58;;;;;;;12.10;8.30;;;;;;;;;;4966266;28;20701;-78
2021/08/29 04:25:04;;;;;;;9.57;7.50;;;;;;;;;;4976812;28;20191;-78
2021/08/29 04:28:09;;;;;;;10.67;7.17;;;;;;;;;;4979442;28;20207;-78
2021/08/29 04:31:23;;;;;;;10.07;8.17;;;;;;;;;;4979184;28;20230;-78
2021/08/29 04:34:36;;;;;;;11.37;8.90;;;;;;;;;;4939016;29;20187;-78
2021/08/29 04:37:44;;;;;;;12.03;8.50;;;;;;;;;;4967616;28;20202;-78
2021/08/29 04:40:52;;;;;;;11.73;9.40;;;;;;;;;;4967567;28;20717;-78
2021/08/29 04:43:56;;;;;;;12.60;9.30;;;;;;;;;;4976182;28;20199;-78
2021/08/29 04:47:00;;;;;;;11.43;9.43;;;;;;;;;;4974790;28;20194;-78
2021/08/29 04:50:05;;;;;;;16.50;10.03;;;;;;;;;;4962321;28;20646;-78
2021/08/29 04:53:09;;;;;;;15.97;10.17;;;;;;;;;;4973422;28;20206;-78
2021/08/29 04:56:13;;;;;;;11.87;9.90;;;;;;;;;;4962579;28;20222;-78
2021/08/29 04:59:19;;;;;;;16.90;10.80;;;;;;;;;;4962413;28;20566;-78
2021/08/29 05:02:24;;;;;;;11.90;9.57;;;;;;;;;;4973137;28;20715;-78
2021/08/29 05:05:29;;;;;;;12.40;10.23;;;;;;;;;;4974347;28;20182;-78
2021/08/29 05:08:34;;;;;;;12.90;10.83;;;;;;;;;;4973089;28;20214;-78
2021/08/29 05:11:39;;;;;;;13.10;10.40;;;;;;;;;;4959852;28;20226;-77
2021/08/29 05:14:43;;;;;;;12.20;10.07;;;;;;;;;;4962677;28;20681;-78
2021/08/29 05:17:48;;;;;;;15.63;11.07;;;;;;;;;;4956765;28;20558;-78
2021/08/29 05:20:52;;;;;;;12.20;10.63;;;;;;;;;;4954139;29;20242;-78
2021/08/29 05:24:25;;;;;;;14.13;11.10;;;;;;;;;;4966297;28;20206;-78
2021/08/29 05:27:32;;;;;;;12.93;11.10;;;;;;;;;;4970590;28;20550;-78
2021/08/29 05:30:41;;;;;;;13.20;10.73;;;;;;;;;;4966596;28;20221;-77
2021/08/29 05:33:47;;;;;;;14.87;10.60;;;;;;;;;;4966271;28;20194;-77
2021/08/29 05:36:51;;;;;;;14.80;11.57;;;;;;;;;;4965658;28;20202;-77
2021/08/29 05:39:56;;;;;;;12.47;10.77;;;;;;;;;;4955112;28;20206;-77
2021/08/29 05:43:03;;;;;;;14.00;11.27;;;;;;;;;;4957895;29;20210;-78
2021/08/29 05:46:07;;;;;;;14.90;10.70;;;;;;;;;;4936514;28;20199;-77
2021/08/29 05:49:11;;;;;;;12.27;10.17;;;;;;;;;;4946867;29;20187;-77
2021/08/29 05:52:15;;;;;;;12.73;10.63;;;;;;;;;;4947393;29;20218;-78
2021/08/29 05:55:19;;;;;;;17.07;11.73;;;;;;;;;;4948305;28;20198;-78
2021/08/29 05:58:23;;;;;;;11.93;10.63;;;;;;;;;;4967680;28;20222;-77
2021/08/29 06:01:27;;;;;;;14.33;11.27;;;;;;;;;;4965483;28;20237;-77
2021/08/29 06:04:31;;;;;;;12.90;10.87;;;;;;;;;;4964983;28;20223;-77
2021/08/29 06:07:54;;;;;;;12.87;10.80;;;;;;;;;;4983801;28;20217;-77
2021/08/29 06:10:58;;;;;;;13.43;10.87;;;;;;;;;;4954977;28;20225;-77
2021/08/29 06:14:05;;;;;;;11.70;9.47;;;;;;;;;;4966207;28;20182;-77
2021/08/29 06:17:09;;;;;;;15.17;11.97;;;;;;;;;;4976365;28;20187;-77
2021/08/29 06:20:14;;;;;;;12.57;10.90;;;;;;;;;;4965408;28;20214;-77
2021/08/29 06:23:18;;;;;;;12.27;10.33;;;;;;;;;;4963423;28;20218;-77
2021/08/29 06:26:41;;;;;;;13.53;10.07;;;;;;;;;;4964641;28;20202;-77
2021/08/29 06:30:04;;;;;;;13.30;9.83;;;;;;;;;;4977071;28;20665;-78
2021/08/29 06:33:26;;;;;;;13.93;11.17;;;;;;;;;;4976461;28;20641;-78
2021/08/29 06:36:35;;;;;;;13.73;10.13;;;;;;;;;;4976247;28;20201;-78
2021/08/29 06:39:40;;;;;;;11.37;9.07;;;;;;;;;;4974949;28;20213;-78
2021/08/29 06:42:44;;;;;;;12.03;9.47;;;;;;;;;;4975947;28;20218;-77
2021/08/29 06:46:09;;;;;;;10.70;8.97;;;;;;;;;;4971132;28;20686;-78
2021/08/29 06:49:48;;;;;;;11.30;9.60;;;;;;;;;;4974438;28;20198;-78
2021/08/29 06:53:11;;;;;;;12.17;9.83;;;;;;;;;;4962582;28;20191;-78
2021/08/29 06:56:47;;;;;;;12.17;9.10;;;;;;;;;;4976651;28;20210;-77
2021/08/29 07:00:11;;;;;;;11.00;9.10;;;;;;;;;;4976467;28;20195;-78
2021/08/29 07:03:16;;;;;;;11.73;9.77;;;;;;;;;;4975981;28;20175;-77
2021/08/29 07:06:20;;;;;;;12.00;9.53;;;;;;;;;;4975733;28;20175;-78
2021/08/29 07:09:44;;;;;;;12.43;9.77;;;;;;;;;;4976766;28;20190;-78
2021/08/29 07:12:49;;;;;;;14.27;10.07;;;;;;;;;;4975522;28;20203;-77
2021/08/29 07:16:06;;;;;;;13.30;9.50;;;;;;;;;;4975163;28;20206;-77
2021/08/29 07:19:10;;;;;;;10.17;8.97;;;;;;;;;;4975473;28;20198;-77
2021/08/29 07:22:33;;;;;;;10.03;8.80;;;;;;;;;;4975984;28;20230;-77
2021/08/29 07:25:56;;;;;;;10.77;9.23;;;;;;;;;;4975552;28;20572;-77
2021/08/29 07:29:19;;;;;;;10.30;8.77;;;;;;;;;;4975182;28;20195;-77
2021/08/29 07:32:42;;;;;;;9.77;7.70;;;;;;;;;;4975350;28;20227;-77
2021/08/29 07:35:46;;;;;;;10.50;8.80;;;;;;;;;;4975127;28;20199;-78
2021/08/29 07:39:08;;;;;;;9.87;7.80;;;;;;;;;;4976036;28;20194;-77
2021/08/29 07:42:13;;;;;;;10.67;7.90;;;;;;;;;;4974618;28;20226;-77
2021/08/29 07:45:17;;;;;;;9.23;7.53;;;;;;;;;;4975676;28;20191;-77
2021/08/29 07:48:21;;;;;;;9.13;7.60;;;;;;;;;;4964028;28;20206;-77
2021/08/29 07:51:25;;;;;;;8.67;7.67;;;;;;;;;;4974184;28;20712;-77
2021/08/29 07:54:48;;;;;;;8.23;7.37;;;;;;;;;;4975869;28;20191;-78
2021/08/29 07:58:21;;;;;;;8.90;7.10;;;;;;;;;;4986425;28;20199;-78
2021/08/29 08:01:29;;;;;;;11.17;7.40;;;;;;;;;;4963836;28;20693;-77
2021/08/29 08:04:57;;;;;;;8.43;6.87;;;;;;;;;;4960423;28;20204;-77
2021/08/29 08:08:21;;;;;;;7.13;5.90;;;;;;;;;;4975498;28;20187;-77
2021/08/29 08:11:44;;;;;;;6.90;5.20;;;;;;;;;;4975607;28;20210;-78
2021/08/29 08:14:50;;;;;;;5.80;5.20;;;;;;;;;;4964066;28;20515;-77
2021/08/29 08:17:54;;;;;;;6.90;4.93;;;;;;;;;;4952336;28;20218;-78
2021/08/29 08:20:58;;;;;;;5.17;4.67;;;;;;;;;;4974151;28;20222;-77
2021/08/29 08:24:23;;;;;;;7.83;4.70;;;;;;;;;;4978972;28;20214;-77
2021/08/29 08:27:45;;;;;;;4.03;3.63;;;;;;;;;;4970953;28;20532;-77
2021/08/29 08:31:12;;;;;;;4.10;3.70;;;;;;;;;;4974032;28;20690;-77
2021/08/29 08:34:45;;;;;;;4.17;3.77;;;;;;;;;;4965470;28;20200;-78
2021/08/29 08:38:01;;;;;;;3.50;3.20;;;;;;;;;;4955129;29;20524;-78
2021/08/29 08:41:38;;;;;;;4.13;3.73;;;;;;;;;;4963162;28;20559;-73
2021/08/29 08:45:01;;;;;;;4.00;3.60;;;;;;;;;;4955349;28;20187;-74
2021/08/29 08:48:26;;;;;;;4.37;3.43;;;;;;;;;;4963375;28;20206;-73
2021/08/29 08:51:56;;;;;;;3.67;3.37;;;;;;;;;;4971291;28;20218;-73
2021/08/29 08:55:20;;;;;;;4.13;3.53;;;;;;;;;;4971298;28;20178;-74
2021/08/29 08:58:44;;;;;;;3.37;3.07;;;;;;;;;;4969809;28;20207;-74
2021/08/29 09:02:08;;;;;;;6.47;3.13;;;;;;;;;;4970258;28;20235;-74
2021/08/29 09:05:32;;;;;;;3.43;3.13;;;;;;;;;;4962588;28;20198;-72
2021/08/29 09:08:51;;;;;;;4.40;3.00;;;;;;;;;;4961182;28;20187;-72
2021/08/29 09:11:56;;;;;;;3.67;3.37;;;;;;;;;;4969976;28;20210;-72
2021/08/29 09:15:00;;;;;;;3.50;3.10;;;;;;;;;;4950836;29;20183;-72
2021/08/29 09:18:09;;;;;;;2.60;2.40;;;;;;;;;;4950327;29;20187;-72
2021/08/29 09:21:19;;;;;;;4.17;3.40;;;;;;;;;;4961559;28;20222;-72
2021/08/29 09:24:28;;;;;;;1.83;1.73;;;;;;;;;;4961875;28;20188;-72
2021/08/29 09:27:58;;;;;;;2.67;2.40;;;;;;;;;;4959914;28;20195;-72
2021/08/29 09:31:19;;;;;;;3.13;2.83;;;;;;;;;;4969530;28;20222;-72
2021/08/29 09:34:24;;;;;;;2.03;1.90;;;;;;;;;;4969805;28;20191;-72
2021/08/29 09:37:28;;;;;;;2.53;1.80;;;;;;;;;;4969753;28;20650;-72
2021/08/29 09:40:56;;;;;;;2.13;1.70;;;;;;;;;;4974663;28;20218;-73
2021/08/29 09:44:22;;;;;;;2.50;2.27;;;;;;;;;;4970727;28;20183;-72
2021/08/29 09:47:43;;;;;;;2.47;2.27;;;;;;;;;;4969982;28;20187;-72
2021/08/29 09:51:12;;;;;;;2.23;2.03;;;;;;;;;;4970141;28;20231;-72
2021/08/29 09:54:43;;;;;;;3.37;2.50;;;;;;;;;;4969426;28;20532;-72
2021/08/29 09:58:23;;;;;;;2.20;2.00;;;;;;;;;;4970681;28;20808;-72
2021/08/29 10:01:54;;;;;;;3.20;2.90;;;;;;;;;;4959441;28;20219;-72
2021/08/29 10:05:13;;;;;;;2.60;1.83;;;;;;;;;;4969307;28;20187;-72
2021/08/29 10:08:19;;;;;;;2.87;2.50;;;;;;;;;;4970257;28;20183;-72
2021/08/29 10:11:33;;;;;;;2.73;2.27;;;;;;;;;;4969376;28;20223;-72
2021/08/29 10:14:40;;;;;;;1.83;1.73;;;;;;;;;;4972870;28;20187;-72
2021/08/29 10:18:15;;;;;;;2.07;1.83;;;;;;;;;;4972171;28;20203;-72
2021/08/29 10:21:38;;;;;;;2.33;2.13;;;;;;;;;;4961087;28;20219;-72
2021/08/29 10:24:45;;;;;;;3.33;2.67;;;;;;;;;;4973040;28;20191;-72
2021/08/29 10:28:05;;;;;;;2.40;2.20;;;;;;;;;;4957999;28;20195;-73
2021/08/29 10:31:28;;;;;;;2.17;1.97;;;;;;;;;;4972556;28;20222;-73
2021/08/29 10:34:51;;;;;;;2.73;1.50;;;;;;;;;;4972173;28;20194;-73
2021/08/29 10:37:56;;;;;;;1.93;1.60;;;;;;;;;;4972392;28;20207;-73
2021/08/29 10:41:22;;;;;;;1.90;1.70;;;;;;;;;;4972858;28;20219;-73
2021/08/29 10:44:27;;;;;;;1.87;1.67;;;;;;;;;;4972702;28;20187;-73
2021/08/29 10:47:50;;;;;;;3.10;1.83;;;;;;;;;;4972648;28;20198;-73
2021/08/29 10:51:17;;;;;;;3.30;1.30;;;;;;;;;;4973114;28;20228;-73
2021/08/29 10:54:21;;;;;;;2.33;1.30;;;;;;;;;;4972061;28;20190;-73
2021/08/29 10:57:28;;;;;;;1.50;1.30;;;;;;;;;;4972402;28;20205;-74
2021/08/29 11:00:34;;;;;;;1.77;1.23;;;;;;;;;;4970947;28;20200;-73
2021/08/29 11:03:59;;;;;;;2.07;1.20;;;;;;;;;;4967888;28;20216;-73
2021/08/29 11:07:38;;;;;;;3.37;1.23;;;;;;;;;;4959278;28;20648;-73
2021/08/29 11:10:45;;;;;;;3.47;1.50;;;;;;;;;;4957352;28;20330;-73
2021/08/29 11:13:50;;;;;;;1.20;1.10;;;;;;;;;;4961118;28;20178;-73
2021/08/29 11:17:14;;;;;;;1.43;1.10;;;;;;;;;;4971225;28;20202;-73
2021/08/29 11:20:56;;;;;;;1.60;1.33;;;;;;;;;;4955931;28;20220;-73
2021/08/29 11:24:45;;;;;;;1.60;1.40;;;;;;;;;;4969073;28;20198;-72
2021/08/29 11:27:55;;;;;;;3.87;1.20;;;;;;;;;;4971579;28;20192;-73
2021/08/29 11:31:50;;;;;;;1.33;1.10;;;;;;;;;;4971960;28;20230;-73
2021/08/29 11:35:14;;;;;;;1.17;0.93;;;;;;;;;;4971165;28;20651;-72
2021/08/29 11:38:34;;;;;;;1.10;0.90;;;;;;;;;;4959839;28;20194;-72
2021/08/29 11:41:39;;;;;;;4.13;1.13;;;;;;;;;;4982168;28;20210;-73
2021/08/29 11:44:45;;;;;;;3.57;1.50;;;;;;;;;;4971001;28;20293;-72
2021/08/29 11:47:51;;;;;;;3.63;1.40;;;;;;;;;;4971202;28;20187;-72
2021/08/29 11:51:14;;;;;;;1.90;1.20;;;;;;;;;;4962105;28;20231;-72
2021/08/29 11:54:42;;;;;;;1.47;1.37;;;;;;;;;;4988389;23;20162;-74
2021/08/29 11:57:53;;;;;;;1.53;1.37;;;;;;;;;;4991864;28;20186;-75
2021/08/29 12:01:04;;;;;;;2.67;1.30;;;;;;;;;;5008294;28;20218;-75
2021/08/29 12:04:19;;;;;;;2.10;1.40;;;;;;;;;;4982951;28;20202;-75
2021/08/29 12:08:06;;;;;;;1.30;1.20;;;;;;;;;;4995384;28;20517;-75
2021/08/29 12:11:40;;;;;;;1.47;1.37;;;;;;;;;;4993522;28;20225;-75
2021/08/29 12:15:05;;;;;;;1.43;1.33;;;;;;;;;;4999177;28;20205;-75
2021/08/29 12:18:37;;;;;;;3.23;1.23;;;;;;;;;;4994911;28;20187;-75
2021/08/29 12:21:43;;;;;;;1.10;1.00;;;;;;;;;;4993691;28;20217;-75
2021/08/29 12:25:09;;;;;;;1.20;1.10;;;;;;;;;;4993895;28;20178;-75
2021/08/29 12:28:14;;;;;;;3.00;2.10;;;;;;;;;;4993836;28;20210;-75
2021/08/29 12:31:19;;;;;;;1.17;1.00;;;;;;;;;;4993544;28;20222;-75
2021/08/29 12:34:26;;;;;;;1.53;1.00;;;;;;;;;;4993598;28;20182;-75
2021/08/29 12:37:32;;;;;;;2.67;0.80;;;;;;;;;;4992701;28;20190;-75
2021/08/29 12:40:40;;;;;;;1.00;0.90;;;;;;;;;;4993432;28;20190;-75
2021/08/29 12:43:43;;;;;;;1.13;1.03;;;;;;;;;;4994257;28;20217;-75
2021/08/29 12:46:51;;;;;;;1.20;1.10;;;;;;;;;;4982784;28;20665;-75
2021/08/29 12:49:56;;;;;;;0.80;0.80;;;;;;;;;;4994157;28;20198;-75
2021/08/29 12:53:07;;;;;;;0.70;0.70;;;;;;;;;;4994653;28;20202;-75
2021/08/29 12:56:20;;;;;;;2.07;1.00;;;;;;;;;;4993812;28;20550;-75
2021/08/29 12:59:28;;;;;;;1.10;0.90;;;;;;;;;;4993495;28;20206;-75
2021/08/29 13:02:41;;;;;;;1.10;0.90;;;;;;;;;;4993881;28;20214;-75
2021/08/29 13:05:48;;;;;;;1.03;0.90;;;;;;;;;;4993242;28;20198;-75
2021/08/29 13:08:52;;;;;;;1.63;1.10;;;;;;;;;;4993944;28;20205;-75
2021/08/29 13:11:56;;;;;;;1.10;1.00;;;;;;;;;;4993062;28;20221;-75
2021/08/29 13:15:00;;;;;;;1.10;0.90;;;;;;;;;;4993928;28;20182;-75
2021/08/29 13:18:06;;;;;;;3.83;1.20;;;;;;;;;;4993877;28;20186;-75
2021/08/29 13:21:28;;;;;;;1.37;1.00;;;;;;;;;;4992290;28;20213;-74
2021/08/29 13:24:35;;;;;;;5.23;4.20;;;;;;;;;;4989209;28;20554;-74
2021/08/29 13:27:42;;;;;;;2.10;1.90;;;;;;;;;;4989960;28;20194;-74
2021/08/29 13:30:47;;;;;;;2.73;2.03;;;;;;;;;;4988067;28;20218;-74
2021/08/29 13:34:02;;;;;;;3.60;3.23;;;;;;;;;;4989279;28;20637;-74
2021/08/29 13:37:10;;;;;;;2.00;1.57;;;;;;;;;;4989849;28;20564;-74
2021/08/29 13:40:16;;;;;;;1.43;1.20;;;;;;;;;;4988914;28;20202;-74
2021/08/29 13:43:26;;;;;;;3.07;1.00;;;;;;;;;;4972799;28;20214;-74
2021/08/29 13:46:30;;;;;;;1.87;1.20;;;;;;;;;;4983456;28;20206;-74
2021/08/29 13:49:35;;;;;;;3.30;3.00;;;;;;;;;;5009412;28;20181;-74
2021/08/29 13:52:39;;;;;;;2.83;2.13;;;;;;;;;;4998076;28;20840;-74
2021/08/29 13:55:51;;;;;;;1.57;1.20;;;;;;;;;;4993389;28;20222;-74
2021/08/29 13:58:55;;;;;;;1.20;0.80;;;;;;;;;;5004240;28;20185;-74
2021/08/29 14:01:59;;;;;;;0.93;0.80;;;;;;;;;;5016397;28;20561;-74
2021/08/29 14:05:04;;;;;;;3.40;2.53;;;;;;;;;;4989661;28;20214;-74
2021/08/29 14:08:09;;;;;;;1.70;1.60;;;;;;;;;;4991943;28;20648;-74
2021/08/29 14:11:13;;;;;;;1.00;0.90;;;;;;;;;;4990046;28;20226;-76
2021/08/29 14:14:18;;;;;;;1.17;0.70;;;;;;;;;;4960392;28;20178;-76
2021/08/29 14:17:22;;;;;;;1.27;0.70;;;;;;;;;;4975515;28;20190;-76
2021/08/29 14:20:28;;;;;;;1.43;1.03;;;;;;;;;;4992048;28;20645;-76
2021/08/29 14:23:32;;;;;;;0.73;0.70;;;;;;;;;;4980606;28;20542;-76
2021/08/29 14:26:36;;;;;;;1.03;0.93;;;;;;;;;;4991875;28;20202;-76
2021/08/29 14:29:40;;;;;;;1.00;0.90;;;;;;;;;;4993163;28;20194;-76
2021/08/29 14:32:46;;;;;;;1.00;0.90;;;;;;;;;;4993687;28;20649;-75
2021/08/29 14:35:50;;;;;;;1.13;1.00;;;;;;;;;;4992166;28;20202;-75
2021/08/29 14:38:54;;;;;;;8.20;1.30;;;;;;;;;;4993102;28;20281;-76
2021/08/29 14:41:58;;;;;;;2.67;2.33;;;;;;;;;;4992364;28;20229;-76
2021/08/29 14:45:03;;;;;;;6.03;3.10;;;;;;;;;;4992217;28;20553;-76
2021/08/29 14:48:08;;;;;;;2.43;1.83;;;;;;;;;;4992328;28;20553;-76
2021/08/29 14:51:12;;;;;;;1.60;1.30;;;;;;;;;;4991852;28;20217;-76
2021/08/29 14:54:21;;;;;;;1.20;1.10;;;;;;;;;;4981135;28;20190;-76
2021/08/29 14:57:27;;;;;;;1.50;1.40;;;;;;;;;;4980417;28;20190;-76
2021/08/29 15:00:33;;;;;;;1.40;1.30;;;;;;;;;;4989801;28;20197;-76
2021/08/29 15:03:36;;;;;;;1.50;1.27;;;;;;;;;;4980257;28;20213;-76
2021/08/29 15:06:40;;;;;;;1.23;1.00;;;;;;;;;;4991742;28;20217;-77
2021/08/29 15:09:44;;;;;;;1.33;0.87;;;;;;;;;;4991439;28;20197;-77
2021/08/29 15:12:49;;;;;;;1.30;0.83;;;;;;;;;;4991635;28;20201;-76
2021/08/29 15:15:53;;;;;;;1.57;0.90;;;;;;;;;;4980724;28;20542;-76
2021/08/29 15:18:57;;;;;;;0.80;0.70;;;;;;;;;;4980279;28;20190;-76
2021/08/29 15:22:01;;;;;;;0.60;0.60;;;;;;;;;;4991102;28;20226;-76
2021/08/29 15:25:07;;;;;;;1.90;1.00;;;;;;;;;;4990169;28;20210;-74
2021/08/29 15:28:11;;;;;;;1.93;1.60;;;;;;;;;;4991664;28;20198;-74
2021/08/29 15:31:16;;;;;;;1.47;1.23;;;;;;;;;;4991404;28;20221;-74
2021/08/29 15:34:20;;;;;;;1.70;1.10;;;;;;;;;;4990911;28;20178;-75
2021/08/29 15:37:24;;;;;;;2.07;1.20;;;;;;;;;;4979143;28;20577;-75
2021/08/29 15:40:31;;;;;;;1.20;1.10;;;;;;;;;;4990790;28;20182;-75
2021/08/29 15:43:36;;;;;;;1.40;1.30;;;;;;;;;;4989498;28;20214;-75
2021/08/29 15:46:40;;;;;;;5.53;1.40;;;;;;;;;;4983536;28;20201;-75
2021/08/29 15:49:45;;;;;;;1.97;1.37;;;;;;;;;;4982780;28;20190;-75
2021/08/29 15:52:49;;;;;;;2.63;1.50;;;;;;;;;;5000148;28;20557;-75
2021/08/29 15:55:54;;;;;;;3.03;1.23;;;;;;;;;;5007085;28;20202;-75
2021/08/29 15:58:59;;;;;;;4.00;1.50;;;;;;;;;;4995358;28;20197;-75
2021/08/29 16:02:04;;;;;;;1.80;1.30;;;;;;;;;;4991128;28;20704;-75
2021/08/29 16:05:09;;;;;;;1.80;1.20;;;;;;;;;;4991011;28;20210;-75
2021/08/29 16:08:16;;;;;;;1.40;1.20;;;;;;;;;;4990754;28;20190;-75
2021/08/29 16:11:20;;;;;;;1.43;1.20;;;;;;;;;;4989783;28;20221;-75
2021/08/29 16:14:25;;;;;;;1.17;1.07;;;;;;;;;;4990490;28;20178;-74
2021/08/29 16:17:29;;;;;;;1.10;1.00;;;;;;;;;;4991115;28;20190;-74
2021/08/29 16:20:36;;;;;;;1.43;1.17;;;;;;;;;;4991014;28;20186;-74
2021/08/29 16:23:40;;;;;;;1.77;1.10;;;;;;;;;;4990624;28;20573;-74
2021/08/29 16:26:45;;;;;;;2.03;1.33;;;;;;;;;;4990416;28;20206;-75
2021/08/29 16:29:49;;;;;;;1.70;1.40;;;;;;;;;;4972447;28;20681;-75
2021/08/29 16:32:53;;;;;;;2.63;1.10;;;;;;;;;;4990144;28;20190;-75
2021/08/29 16:35:57;;;;;;;1.23;1.13;;;;;;;;;;4989334;28;20186;-75
2021/08/29 16:39:02;;;;;;;1.20;1.10;;;;;;;;;;4971702;28;20199;-75
2021/08/29 16:42:06;;;;;;;1.53;1.10;;;;;;;;;;4970763;28;20222;-75
2021/08/29 16:45:10;;;;;;;3.93;1.33;;;;;;;;;;4981065;28;20214;-75
2021/08/29 16:48:16;;;;;;;1.33;1.23;;;;;;;;;;4990048;28;20202;-75
2021/08/29 16:51:20;;;;;;;2.73;1.60;;;;;;;;;;4978370;28;20669;-75
2021/08/29 16:54:24;;;;;;;1.67;1.33;;;;;;;;;;4971847;28;20190;-75
2021/08/29 16:57:29;;;;;;;2.70;1.20;;;;;;;;;;4988697;28;20182;-75
2021/08/29 17:00:33;;;;;;;1.30;1.20;;;;;;;;;;4969707;28;20182;-76
2021/08/29 17:03:37;;;;;;;2.83;1.20;;;;;;;;;;4980202;28;20194;-75
2021/08/29 17:06:42;;;;;;;3.10;1.53;;;;;;;;;;4970628;28;20198;-75
2021/08/29 17:09:46;;;;;;;1.20;1.10;;;;;;;;;;4987133;28;20197;-75
2021/08/29 17:12:50;;;;;;;1.53;1.00;;;;;;;;;;4989179;28;20233;-75
2021/08/29 17:15:54;;;;;;;1.43;1.00;;;;;;;;;;4971517;28;20626;-75
2021/08/29 17:18:59;;;;;;;1.10;1.00;;;;;;;;;;4986829;28;20194;-75
2021/08/29 17:22:03;;;;;;;1.73;1.13;;;;;;;;;;4990053;28;20213;-75
2021/08/29 17:25:08;;;;;;;1.87;1.10;;;;;;;;;;4992643;28;20206;-76
2021/08/29 17:28:12;;;;;;;4.60;1.70;;;;;;;;;;4994694;28;20189;-76
2021/08/29 17:31:17;;;;;;;1.13;1.00;;;;;;;;;;4993891;28;20767;-75
2021/08/29 17:34:21;;;;;;;1.57;1.13;;;;;;;;;;4993731;28;20190;-75
2021/08/29 17:37:26;;;;;;;1.87;1.40;;;;;;;;;;4974343;28;20182;-75
2021/08/29 17:40:31;;;;;;;2.27;1.10;;;;;;;;;;4991863;28;20198;-75
2021/08/29 17:43:35;;;;;;;1.40;1.30;;;;;;;;;;4974848;28;20183;-75
2021/08/29 17:46:40;;;;;;;3.70;1.30;;;;;;;;;;4973962;28;20183;-75
2021/08/29 17:49:44;;;;;;;1.50;1.20;;;;;;;;;;4986273;28;20194;-75
2021/08/29 17:52:49;;;;;;;3.83;1.30;;;;;;;;;;4974695;28;20183;-75
2021/08/29 17:55:53;;;;;;;3.97;1.50;;;;;;;;;;4974432;28;20962;-75
2021/08/29 17:58:59;;;;;;;1.53;1.40;;;;;;;;;;4979045;28;20202;-75
2021/08/29 18:02:03;;;;;;;2.33;1.53;;;;;;;;;;4992777;28;20569;-74
2021/08/29 18:05:09;;;;;;;1.87;1.43;;;;;;;;;;4975695;28;20206;-75
2021/08/29 18:08:14;;;;;;;1.37;1.27;;;;;;;;;;4992962;28;20201;-75
2021/08/29 18:11:19;;;;;;;3.53;2.30;;;;;;;;;;4993381;28;20214;-74
2021/08/29 18:14:23;;;;;;;4.57;1.63;;;;;;;;;;4992873;28;20190;-74
2021/08/29 18:17:28;;;;;;;1.83;1.70;;;;;;;;;;4993539;28;20182;-74
2021/08/29 18:20:32;;;;;;;2.63;1.60;;;;;;;;;;4974725;28;20198;-74
2021/08/29 18:23:36;;;;;;;1.60;1.50;;;;;;;;;;4973805;28;20194;-74
2021/08/29 18:26:40;;;;;;;4.27;1.60;;;;;;;;;;4980189;28;20194;-74
2021/08/29 18:29:44;;;;;;;4.80;1.70;;;;;;;;;;4989298;28;20201;-73
2021/08/29 18:32:49;;;;;;;2.40;1.60;;;;;;;;;;4991188;28;20205;-74
2021/08/29 18:35:53;;;;;;;1.80;1.70;;;;;;;;;;4999306;28;20202;-73
2021/08/29 18:38:57;;;;;;;3.60;1.90;;;;;;;;;;4998256;28;20186;-73
2021/08/29 18:42:02;;;;;;;2.20;2.00;;;;;;;;;;5000575;28;20217;-73
2021/08/29 18:45:07;;;;;;;2.30;1.53;;;;;;;;;;5002658;28;20210;-73
2021/08/29 18:48:12;;;;;;;1.97;1.43;;;;;;;;;;4990586;28;20197;-73
2021/08/29 18:51:16;;;;;;;1.60;1.50;;;;;;;;;;5000392;28;20221;-73
2021/08/29 18:54:20;;;;;;;2.13;1.40;;;;;;;;;;4994911;28;20217;-73